Time;durP1;ratioP1;P1;durP2;ratioP2;P2;SDS_P1;SDS_P2;PMS_P1;PMS_P2;Temp;Humidity;BMP_temperature;BMP_pressure;BME280_temperature;BME280_humidity;BME280_pressure;Samples;Min_cycle;Max_cycle;Signal;HPM_P1;HPM_P2
2021/05/26 00:00:59;;;;;;;1.83;1.70;;;17.50;99.90;;;;;;5125487;28;20929;-41
2021/05/26 00:03:29;;;;;;;2.07;1.97;;;17.60;99.90;;;;;;5143630;27;20459;-41
2021/05/26 00:06:00;;;;;;;2.17;1.90;;;17.70;99.90;;;;;;5146642;27;20445;-39
2021/05/26 00:08:32;;;;;;;2.80;2.60;;;17.80;99.90;;;;;;5144964;27;20520;-41
2021/05/26 00:11:05;;;;;;;2.00;1.90;;;17.90;99.90;;;;;;5146501;27;20449;-41
2021/05/26 00:13:36;;;;;;;3.03;1.93;;;18.10;99.90;;;;;;5145516;27;20505;-41
2021/05/26 00:16:08;;;;;;;2.50;2.30;;;18.20;99.90;;;;;;5146900;27;20475;-39
2021/05/26 00:18:39;;;;;;;2.40;2.20;;;18.40;99.90;;;;;;5145268;27;20525;-40
2021/05/26 00:21:10;;;;;;;2.10;2.00;;;18.60;99.90;;;;;;5138042;27;20464;-41
2021/05/26 00:23:40;;;;;;;3.67;2.20;;;18.50;99.90;;;;;;5145233;27;20476;-39
2021/05/26 00:26:11;;;;;;;2.50;2.30;;;18.70;99.90;;;;;;5138975;27;20444;-40
2021/05/26 00:28:43;;;;;;;2.83;2.57;;;18.40;99.90;;;;;;5129944;27;20515;-40
2021/05/26 00:31:20;;;;;;;3.00;2.80;;;18.40;99.90;;;;;;5138399;27;20931;-40
2021/05/26 00:33:51;;;;;;;2.77;2.37;;;18.50;99.90;;;;;;5145438;27;20431;-41
2021/05/26 00:36:22;;;;;;;1.90;1.80;;;18.40;99.90;;;;;;5146217;27;20758;-40
2021/05/26 00:38:52;;;;;;;2.30;2.20;;;18.50;99.90;;;;;;5145096;27;20489;-40
2021/05/26 00:41:27;;;;;;;2.40;2.30;;;18.30;99.90;;;;;;5145414;27;20415;-40
2021/05/26 00:43:58;;;;;;;2.10;2.00;;;18.30;99.90;;;;;;5141591;27;20438;-40
2021/05/26 00:46:29;;;;;;;2.70;2.47;;;18.30;99.90;;;;;;5145378;27;20419;-39
2021/05/26 00:49:01;;;;;;;1.80;1.70;;;18.20;99.90;;;;;;5144360;27;20480;-40
2021/05/26 00:51:31;;;;;;;2.90;2.30;;;17.80;99.90;;;;;;5143754;27;20443;-40
2021/05/26 00:54:02;;;;;;;2.20;2.00;;;17.70;99.90;;;;;;5144626;27;20445;-42
2021/05/26 00:56:33;;;;;;;1.90;1.80;;;17.60;99.90;;;;;;5129093;27;20444;-40
2021/05/26 00:59:05;;;;;;;2.60;1.90;;;17.70;99.90;;;;;;5133043;27;20504;-41
2021/05/26 01:01:37;;;;;;;2.30;2.00;;;17.70;99.90;;;;;;5144009;27;20431;-41
2021/05/26 01:04:08;;;;;;;2.03;1.93;;;17.80;99.90;;;;;;5144363;27;20470;-40
2021/05/26 01:06:38;;;;;;;2.07;1.97;;;18.00;99.90;;;;;;5134322;27;20453;-41
2021/05/26 01:09:08;;;;;;;2.30;2.10;;;17.70;99.90;;;;;;5144923;27;20415;-41
2021/05/26 01:11:39;;;;;;;2.33;2.13;;;17.70;99.90;;;;;;5144918;27;20470;-39
2021/05/26 01:14:09;;;;;;;1.93;1.83;;;17.80;99.90;;;;;;5143614;27;20476;-40
2021/05/26 01:16:41;;;;;;;2.37;2.17;;;17.80;99.90;;;;;;5127803;27;20912;-40
2021/05/26 01:19:14;;;;;;;2.77;2.33;;;17.90;99.90;;;;;;5144696;27;20553;-39
2021/05/26 01:21:44;;;;;;;2.73;1.90;;;17.80;99.90;;;;;;5144092;27;20449;-40
2021/05/26 01:24:16;;;;;;;2.10;2.00;;;17.80;99.90;;;;;;5144090;27;20416;-40
2021/05/26 01:26:47;;;;;;;1.80;1.70;;;17.60;99.90;;;;;;5145029;27;21002;-40
2021/05/26 01:29:18;;;;;;;1.83;1.73;;;17.50;99.90;;;;;;5132375;27;20477;-40
2021/05/26 01:31:48;;;;;;;2.00;1.70;;;17.50;99.90;;;;;;5144168;27;20948;-40
2021/05/26 01:34:18;;;;;;;2.20;2.00;;;17.30;99.90;;;;;;5143375;27;20423;-39
2021/05/26 01:36:49;;;;;;;2.67;2.47;;;17.20;99.90;;;;;;5144219;27;20913;-40
2021/05/26 01:39:21;;;;;;;2.70;2.40;;;17.30;99.90;;;;;;5144661;27;20546;-39
2021/05/26 01:41:52;;;;;;;2.67;2.47;;;17.10;99.90;;;;;;5144020;27;20449;-41
2021/05/26 01:44:26;;;;;;;2.10;2.00;;;17.00;99.90;;;;;;5143862;27;20449;-41
2021/05/26 01:46:56;;;;;;;2.00;1.60;;;17.00;99.90;;;;;;5144854;27;20455;-41
2021/05/26 01:49:27;;;;;;;2.30;2.10;;;16.80;99.90;;;;;;5135798;27;20479;-41
2021/05/26 01:51:58;;;;;;;1.43;1.33;;;16.70;99.90;;;;;;5144106;27;20441;-41
2021/05/26 01:54:29;;;;;;;2.53;2.33;;;16.50;99.90;;;;;;5144597;27;20416;-38
2021/05/26 01:57:00;;;;;;;3.47;2.60;;;16.40;99.90;;;;;;5144104;27;20449;-41
2021/05/26 01:59:30;;;;;;;3.33;3.03;;;16.40;99.90;;;;;;5142962;27;20512;-41
2021/05/26 02:02:01;;;;;;;3.53;3.23;;;16.30;99.90;;;;;;5135760;27;20448;-42
2021/05/26 02:04:31;;;;;;;3.10;2.23;;;16.20;99.90;;;;;;5143889;27;20781;-41
2021/05/26 02:07:03;;;;;;;2.20;2.10;;;16.20;99.90;;;;;;5143956;27;20458;-39
2021/05/26 02:09:36;;;;;;;2.83;2.70;;;16.10;99.90;;;;;;5144162;27;20453;-38
2021/05/26 02:12:22;;;;;;;2.20;2.10;;;16.20;99.90;;;;;;5139131;27;21172;-40
2021/05/26 02:14:54;;;;;;;1.87;1.77;;;16.30;99.90;;;;;;5137451;27;20444;-41
2021/05/26 02:17:25;;;;;;;2.67;2.47;;;16.30;99.90;;;;;;5143303;27;20456;-40
2021/05/26 02:19:55;;;;;;;2.03;1.93;;;16.20;99.90;;;;;;5143466;27;20502;-42
2021/05/26 02:22:26;;;;;;;6.00;2.43;;;16.20;99.90;;;;;;5131438;27;21030;-40
2021/05/26 02:24:58;;;;;;;2.20;2.03;;;16.20;99.90;;;;;;5144480;27;20816;-41
2021/05/26 02:27:28;;;;;;;1.93;1.70;;;16.00;99.90;;;;;;5143431;27;20453;-40
2021/05/26 02:29:59;;;;;;;1.70;1.60;;;16.00;99.90;;;;;;5139577;27;20424;-39
2021/05/26 02:32:30;;;;;;;3.20;2.00;;;15.90;99.90;;;;;;5133064;27;20977;-40
2021/05/26 02:35:03;;;;;;;2.33;2.13;;;15.80;99.90;;;;;;5142502;27;20467;-40
2021/05/26 02:37:34;;;;;;;2.10;2.00;;;15.80;99.90;;;;;;5143649;27;20530;-40
2021/05/26 02:40:07;;;;;;;2.80;2.13;;;15.90;99.90;;;;;;5143806;27;20490;-38
2021/05/26 02:42:37;;;;;;;2.40;2.10;;;15.80;99.90;;;;;;5142597;28;20445;-40
2021/05/26 02:45:10;;;;;;;1.80;1.70;;;15.80;99.90;;;;;;5141724;28;20443;-39
2021/05/26 02:47:40;;;;;;;2.10;1.50;;;15.70;99.90;;;;;;5145818;27;20448;-39
2021/05/26 02:50:29;;;;;;;1.67;1.57;;;15.50;99.90;;;;;;5147241;27;20476;-39
2021/05/26 02:53:00;;;;;;;2.13;1.70;;;15.50;99.90;;;;;;5147045;27;20471;-40
2021/05/26 02:55:31;;;;;;;1.80;1.60;;;15.50;99.90;;;;;;5146127;27;20453;-39
2021/05/26 02:58:02;;;;;;;2.50;1.80;;;15.40;99.90;;;;;;5147268;27;20511;-38
2021/05/26 03:00:32;;;;;;;1.60;1.47;;;15.30;99.90;;;;;;5146480;27;20444;-39
2021/05/26 03:03:03;;;;;;;1.60;1.50;;;15.30;99.90;;;;;;5146539;27;20476;-38
2021/05/26 03:05:34;;;;;;;2.30;1.80;;;15.10;99.90;;;;;;5131426;27;20473;-40
2021/05/26 03:08:04;;;;;;;2.20;1.83;;;15.10;99.90;;;;;;5147203;27;20460;-38
2021/05/26 03:10:36;;;;;;;5.00;1.67;;;15.00;99.90;;;;;;5147872;27;20455;-39
2021/05/26 03:13:07;;;;;;;2.47;2.20;;;15.10;99.90;;;;;;5146913;27;20448;-36
2021/05/26 03:15:37;;;;;;;2.07;1.87;;;15.00;99.90;;;;;;5146876;27;20512;-39
2021/05/26 03:18:10;;;;;;;1.60;1.50;;;15.10;99.90;;;;;;5135749;27;20472;-39
2021/05/26 03:20:40;;;;;;;2.83;1.70;;;15.00;99.90;;;;;;5146549;27;20445;-41
2021/05/26 03:23:11;;;;;;;2.90;1.57;;;14.90;99.90;;;;;;5147997;27;20455;-38
2021/05/26 03:25:46;;;;;;;2.30;1.90;;;14.90;99.90;;;;;;5147950;27;20486;-37
2021/05/26 03:28:16;;;;;;;1.90;1.73;;;14.80;99.90;;;;;;5147353;27;20965;-36
2021/05/26 03:30:48;;;;;;;2.37;2.17;;;14.80;99.90;;;;;;5144417;27;20452;-39
2021/05/26 03:33:20;;;;;;;1.60;1.50;;;14.80;99.90;;;;;;5146807;27;20497;-39
2021/05/26 03:35:50;;;;;;;1.70;1.60;;;14.70;99.90;;;;;;5148179;27;20453;-39
2021/05/26 03:38:21;;;;;;;3.27;1.47;;;14.70;99.90;;;;;;5147425;27;20476;-40
2021/05/26 03:40:52;;;;;;;4.40;1.60;;;14.60;99.90;;;;;;5147193;27;20437;-40
2021/05/26 03:43:23;;;;;;;1.83;1.73;;;14.60;99.90;;;;;;5147014;27;20521;-37
2021/05/26 03:45:53;;;;;;;2.80;1.90;;;14.60;99.90;;;;;;5146355;27;20531;-40
2021/05/26 03:48:24;;;;;;;3.10;1.50;;;14.60;99.90;;;;;;5148142;27;20505;-39
2021/05/26 03:51:14;;;;;;;2.20;2.00;;;14.60;99.90;;;;;;5145078;27;20474;-40
2021/05/26 03:53:44;;;;;;;3.10;1.77;;;14.70;99.90;;;;;;5143811;27;20471;-38
2021/05/26 03:56:16;;;;;;;1.90;1.80;;;14.60;99.90;;;;;;5147213;27;20449;-39
2021/05/26 03:58:46;;;;;;;1.93;1.83;;;14.40;99.90;;;;;;5142755;27;20517;-37
2021/05/26 04:01:17;;;;;;;1.90;1.60;;;14.40;99.90;;;;;;5146325;27;20448;-37
2021/05/26 04:03:47;;;;;;;3.00;2.10;;;14.40;99.90;;;;;;5144887;27;20513;-39
2021/05/26 04:06:18;;;;;;;1.70;1.60;;;14.40;99.90;;;;;;5144727;27;20517;-39
2021/05/26 04:08:48;;;;;;;2.50;2.30;;;14.40;99.90;;;;;;5145721;27;20448;-39
2021/05/26 04:11:20;;;;;;;3.40;2.70;;;14.40;99.90;;;;;;5146151;27;20448;-39
2021/05/26 04:13:50;;;;;;;4.63;3.03;;;14.40;99.90;;;;;;5144620;27;20568;-38
2021/05/26 04:16:21;;;;;;;3.90;2.80;;;14.30;99.90;;;;;;5146323;27;20460;-39
2021/05/26 04:18:51;;;;;;;2.80;2.60;;;14.30;99.90;;;;;;5145409;27;20480;-39
2021/05/26 04:21:22;;;;;;;3.60;3.30;;;14.20;99.90;;;;;;5145016;27;20461;-37
2021/05/26 04:23:55;;;;;;;3.07;2.73;;;14.20;99.90;;;;;;5144667;27;20545;-39
2021/05/26 04:26:27;;;;;;;3.13;2.83;;;14.20;99.90;;;;;;5146357;27;20498;-37
2021/05/26 04:28:57;;;;;;;2.53;2.33;;;14.10;99.90;;;;;;5145130;27;20448;-38
2021/05/26 04:31:27;;;;;;;4.00;1.93;;;14.20;99.90;;;;;;5145605;27;20593;-39
2021/05/26 04:33:58;;;;;;;3.13;2.40;;;14.20;99.90;;;;;;5144701;27;20449;-38
2021/05/26 04:36:28;;;;;;;2.40;2.03;;;14.30;99.90;;;;;;5146329;27;20449;-39
2021/05/26 04:38:59;;;;;;;2.20;2.00;;;14.30;99.90;;;;;;5145185;27;20484;-36
2021/05/26 04:41:31;;;;;;;2.80;2.50;;;14.20;99.90;;;;;;5145023;27;20885;-37
2021/05/26 04:44:01;;;;;;;2.53;2.33;;;14.10;99.90;;;;;;5144352;27;20452;-39
2021/05/26 04:46:31;;;;;;;4.23;2.70;;;14.20;99.90;;;;;;5145815;27;20464;-38
2021/05/26 04:51:53;;;;;;;2.37;2.17;;;14.10;99.90;;;;;;5142530;27;20979;-39
2021/05/26 04:54:24;;;;;;;3.00;2.43;;;14.10;99.90;;;;;;5145017;27;20455;-38
2021/05/26 04:56:56;;;;;;;2.30;2.10;;;14.00;99.90;;;;;;5146246;27;20441;-36
2021/05/26 04:59:26;;;;;;;2.10;2.00;;;14.00;99.90;;;;;;5142853;27;20487;-36
2021/05/26 05:01:57;;;;;;;2.10;2.00;;;14.00;99.90;;;;;;5144938;27;20475;-36
2021/05/26 05:04:27;;;;;;;2.30;2.10;;;14.00;99.90;;;;;;5144105;27;20449;-36
2021/05/26 05:06:58;;;;;;;2.10;1.90;;;14.00;99.90;;;;;;5135512;27;20588;-38
2021/05/26 05:09:28;;;;;;;2.10;1.70;;;14.00;99.90;;;;;;5144698;27;20460;-37
2021/05/26 05:12:01;;;;;;;1.97;1.80;;;13.90;99.90;;;;;;5144840;27;20429;-37
2021/05/26 05:14:31;;;;;;;2.40;2.20;;;13.90;99.90;;;;;;5143491;27;20455;-39
2021/05/26 05:17:02;;;;;;;2.23;2.10;;;13.80;99.90;;;;;;5145231;27;20445;-37
2021/05/26 05:19:32;;;;;;;1.83;1.73;;;13.90;99.90;;;;;;5144092;27;20506;-39
2021/05/26 05:22:02;;;;;;;2.57;1.87;;;14.00;99.90;;;;;;5145065;27;20474;-37
2021/05/26 05:24:33;;;;;;;3.00;2.60;;;14.00;99.90;;;;;;5144281;27;20445;-39
2021/05/26 05:27:05;;;;;;;2.57;2.40;;;14.00;99.90;;;;;;5145438;27;20501;-37
2021/05/26 05:29:35;;;;;;;3.30;2.47;;;14.00;99.90;;;;;;5143560;27;20455;-37
2021/05/26 05:32:06;;;;;;;2.80;2.57;;;14.00;99.90;;;;;;5144553;27;20452;-37
2021/05/26 05:34:36;;;;;;;2.53;2.33;;;14.00;99.90;;;;;;5144025;27;20453;-39
2021/05/26 05:37:07;;;;;;;2.73;2.20;;;14.00;99.90;;;;;;5145083;27;20469;-38
2021/05/26 05:39:37;;;;;;;2.43;2.23;;;13.90;99.90;;;;;;5139906;27;20484;-35
2021/05/26 05:42:09;;;;;;;3.63;2.57;;;13.90;99.90;;;;;;5144454;27;20445;-39
2021/05/26 05:44:39;;;;;;;2.43;2.23;;;13.90;99.90;;;;;;5142872;27;20602;-37
2021/05/26 05:47:10;;;;;;;4.10;2.60;;;13.90;99.90;;;;;;5144437;27;20493;-38
2021/05/26 05:49:40;;;;;;;2.57;2.37;;;13.80;99.90;;;;;;5143937;27;20472;-37
2021/05/26 05:52:11;;;;;;;5.90;3.00;;;13.70;99.90;;;;;;5140450;27;20432;-38
2021/05/26 05:54:41;;;;;;;3.27;2.43;;;13.60;99.90;;;;;;5144009;27;20561;-38
2021/05/26 05:57:13;;;;;;;2.70;2.50;;;13.60;99.90;;;;;;5144588;27;20471;-37
2021/05/26 05:59:43;;;;;;;3.27;3.00;;;13.60;99.90;;;;;;5142134;27;20621;-35
2021/05/26 06:02:14;;;;;;;3.00;2.73;;;13.70;99.90;;;;;;5144274;27;20445;-37
2021/05/26 06:04:44;;;;;;;4.13;3.00;;;13.70;99.90;;;;;;5143919;27;20456;-37
2021/05/26 06:07:15;;;;;;;2.83;2.63;;;13.70;99.90;;;;;;5144423;27;20441;-34
2021/05/26 06:09:45;;;;;;;3.40;3.07;;;13.70;99.90;;;;;;5143976;27;20505;-38
2021/05/26 06:12:17;;;;;;;2.67;2.47;;;13.70;99.90;;;;;;5143184;27;20452;-38
2021/05/26 06:14:48;;;;;;;2.70;2.20;;;13.70;99.90;;;;;;5142727;27;20487;-38
2021/05/26 06:17:18;;;;;;;3.13;2.93;;;13.70;99.90;;;;;;5143338;27;20491;-37
2021/05/26 06:19:49;;;;;;;3.13;2.47;;;13.70;99.90;;;;;;5143098;27;20500;-35
2021/05/26 06:22:19;;;;;;;3.83;2.27;;;13.80;99.90;;;;;;5143591;27;20997;-37
2021/05/26 06:24:50;;;;;;;7.40;3.13;;;13.70;99.90;;;;;;5143351;27;20505;-34
2021/05/26 06:27:22;;;;;;;2.97;2.67;;;13.70;99.90;;;;;;5135721;27;20444;-37
2021/05/26 06:29:52;;;;;;;2.50;2.30;;;13.60;99.90;;;;;;5142603;27;20441;-38
2021/05/26 06:32:22;;;;;;;3.30;2.93;;;13.60;99.90;;;;;;5150357;27;20992;-33
2021/05/26 06:34:53;;;;;;;2.70;2.50;;;13.60;99.90;;;;;;5146881;27;20430;-35
2021/05/26 06:37:23;;;;;;;2.67;2.47;;;13.60;99.90;;;;;;5143730;27;20897;-36
2021/05/26 06:39:54;;;;;;;4.37;2.77;;;13.50;99.90;;;;;;5142739;27;20548;-37
2021/05/26 06:42:25;;;;;;;2.47;2.27;;;13.60;99.90;;;;;;5143873;27;20456;-38
2021/05/26 06:44:56;;;;;;;3.93;2.57;;;13.50;99.90;;;;;;5142023;28;20448;-35
2021/05/26 06:47:26;;;;;;;3.20;2.93;;;13.60;99.90;;;;;;5143480;28;20437;-37
2021/05/26 06:49:58;;;;;;;3.73;3.13;;;13.60;99.90;;;;;;5142562;28;20473;-36
2021/05/26 06:55:21;;;;;;;4.33;2.83;;;13.70;99.90;;;;;;5131528;28;20445;-37
2021/05/26 06:57:53;;;;;;;4.50;2.50;;;13.50;99.90;;;;;;5142839;28;20478;-37
2021/05/26 07:00:23;;;;;;;2.70;2.10;;;13.40;99.90;;;;;;5142178;28;20819;-36
2021/05/26 07:02:54;;;;;;;3.83;1.83;;;13.40;99.90;;;;;;5127048;28;20476;-38
2021/05/26 07:05:25;;;;;;;1.73;1.63;;;13.40;99.90;;;;;;5142833;28;20449;-36
2021/05/26 07:07:55;;;;;;;2.50;2.30;;;13.30;99.90;;;;;;5143956;28;20445;-36
2021/05/26 07:10:26;;;;;;;2.77;1.70;;;13.30;99.90;;;;;;5141896;28;20967;-35
2021/05/26 07:12:57;;;;;;;2.10;1.37;;;13.20;99.90;;;;;;5143590;28;20452;-38
2021/05/26 07:15:28;;;;;;;2.47;1.57;;;13.20;99.90;;;;;;5141363;28;20468;-36
2021/05/26 07:18:02;;;;;;;1.20;1.10;;;13.30;99.90;;;;;;5142456;28;20473;-35
2021/05/26 07:20:33;;;;;;;2.40;1.20;;;13.20;99.90;;;;;;5142094;28;20513;-37
2021/05/26 07:23:04;;;;;;;1.73;1.63;;;13.30;99.90;;;;;;5143820;28;20449;-34
2021/05/26 07:25:34;;;;;;;3.47;1.43;;;13.20;99.90;;;;;;5142947;28;20452;-36
2021/05/26 07:28:06;;;;;;;1.87;0.90;;;13.20;99.90;;;;;;5142995;28;20448;-38
2021/05/26 07:30:36;;;;;;;1.33;1.23;;;13.20;99.90;;;;;;5142566;28;20470;-35
2021/05/26 07:33:07;;;;;;;1.43;1.30;;;13.10;99.90;;;;;;5143130;27;20447;-35
2021/05/26 07:35:38;;;;;;;1.40;1.30;;;13.20;99.90;;;;;;5146762;27;20437;-36
2021/05/26 07:38:27;;;;;;;1.70;1.40;;;13.20;99.90;;;;;;5146658;27;20443;-38
2021/05/26 07:40:58;;;;;;;2.30;2.07;;;13.10;99.90;;;;;;5146882;27;20537;-37
2021/05/26 07:43:32;;;;;;;3.13;1.20;;;13.10;99.90;;;;;;5146903;27;20449;-37
2021/05/26 07:46:04;;;;;;;2.17;1.90;;;13.10;99.90;;;;;;5146860;27;20561;-36
2021/05/26 07:48:53;;;;;;;1.70;1.60;;;13.10;99.90;;;;;;5146388;27;20528;-38
2021/05/26 07:51:29;;;;;;;1.30;1.20;;;13.10;99.90;;;;;;5140842;27;20498;-37
2021/05/26 07:54:01;;;;;;;2.10;1.67;;;13.20;99.90;;;;;;5146889;27;20447;-36
2021/05/26 07:56:31;;;;;;;2.40;1.20;;;13.10;99.90;;;;;;5146936;27;20448;-38
2021/05/26 07:59:03;;;;;;;4.57;1.80;;;13.00;99.90;;;;;;5144242;27;20448;-37
2021/05/26 08:01:33;;;;;;;1.60;1.50;;;13.00;99.90;;;;;;5146938;27;20917;-36
2021/05/26 08:04:04;;;;;;;1.47;1.27;;;13.00;99.90;;;;;;5146210;27;20449;-38
2021/05/26 08:06:35;;;;;;;1.63;1.53;;;13.10;99.90;;;;;;5146079;27;20448;-38
2021/05/26 08:09:06;;;;;;;2.90;1.30;;;13.00;99.90;;;;;;5145503;27;20437;-36
2021/05/26 08:11:36;;;;;;;3.20;1.73;;;13.00;99.90;;;;;;5146737;27;20464;-34
2021/05/26 08:14:08;;;;;;;1.60;1.40;;;13.00;99.90;;;;;;5133785;27;20444;-34
2021/05/26 08:16:38;;;;;;;2.07;1.20;;;12.90;99.90;;;;;;5146078;27;20460;-33
2021/05/26 08:19:09;;;;;;;1.60;1.50;;;13.00;99.90;;;;;;5142777;27;20492;-37
2021/05/26 08:21:40;;;;;;;1.63;1.50;;;12.90;99.90;;;;;;5141243;27;20441;-37
2021/05/26 08:24:16;;;;;;;2.70;1.80;;;12.90;99.90;;;;;;5146380;27;20449;-34
2021/05/26 08:26:48;;;;;;;2.30;1.60;;;13.00;99.90;;;;;;5146700;27;20474;-35
2021/05/26 08:29:21;;;;;;;3.93;1.87;;;13.00;99.90;;;;;;5144813;27;20485;-33
2021/05/26 08:31:56;;;;;;;1.60;1.50;;;13.00;99.90;;;;;;5146086;27;20516;-33
2021/05/26 08:34:27;;;;;;;1.50;1.40;;;13.00;99.90;;;;;;5145861;27;20445;-37
2021/05/26 08:36:58;;;;;;;2.63;1.70;;;12.90;99.90;;;;;;5145056;27;20582;-38
2021/05/26 08:39:33;;;;;;;1.90;1.70;;;12.90;99.90;;;;;;5145631;27;20484;-36
2021/05/26 08:42:04;;;;;;;3.37;1.93;;;12.90;99.90;;;;;;5146629;27;20460;-32
2021/05/26 08:44:36;;;;;;;1.60;1.50;;;12.80;99.90;;;;;;5144762;27;20464;-36
2021/05/26 08:47:10;;;;;;;2.07;1.80;;;12.80;99.90;;;;;;5145022;27;20453;-33
2021/05/26 08:49:45;;;;;;;2.70;1.57;;;12.80;99.90;;;;;;5145178;27;20484;-36
2021/05/26 08:52:17;;;;;;;2.20;2.00;;;12.70;99.90;;;;;;5145274;27;20444;-37
2021/05/26 08:54:48;;;;;;;2.00;1.90;;;12.70;99.90;;;;;;5145409;27;20463;-38
2021/05/26 08:57:19;;;;;;;1.90;1.60;;;12.70;99.90;;;;;;5145483;27;20471;-37
2021/05/26 08:59:50;;;;;;;1.67;1.40;;;12.70;99.90;;;;;;5143795;27;20476;-37
2021/05/26 09:02:21;;;;;;;2.13;1.93;;;12.60;99.90;;;;;;5145199;27;20509;-36
2021/05/26 09:04:52;;;;;;;2.83;2.40;;;12.70;99.90;;;;;;5144896;27;20520;-37
2021/05/26 09:07:23;;;;;;;1.80;1.70;;;12.60;99.90;;;;;;5145346;27;20464;-38
2021/05/26 09:09:55;;;;;;;1.73;1.63;;;12.50;99.90;;;;;;5145056;27;20582;-37
2021/05/26 09:12:31;;;;;;;1.93;1.83;;;12.50;99.90;;;;;;5145749;27;20490;-36
2021/05/26 09:15:09;;;;;;;2.50;2.03;;;12.60;99.90;;;;;;5143928;27;20483;-37
2021/05/26 09:17:40;;;;;;;1.80;1.70;;;12.70;99.90;;;;;;5143898;27;22082;-35
2021/05/26 09:20:22;;;;;;;2.20;1.80;;;12.70;99.90;;;;;;5144426;27;20549;-35
2021/05/26 09:23:07;;;;;;;1.83;1.73;;;12.60;99.90;;;;;;5145361;27;20532;-38
2021/05/26 09:25:52;;;;;;;2.40;1.67;;;12.60;99.90;;;;;;5144944;27;20453;-33
2021/05/26 09:28:30;;;;;;;1.90;1.80;;;12.50;99.90;;;;;;5129479;27;20449;-38
2021/05/26 09:31:04;;;;;;;1.77;1.67;;;12.50;99.90;;;;;;5144879;27;20452;-35
2021/05/26 09:33:38;;;;;;;2.33;2.10;;;12.50;99.90;;;;;;5143609;27;20448;-36
2021/05/26 09:36:14;;;;;;;4.00;1.90;;;12.40;99.90;;;;;;5143737;27;20453;-38
2021/05/26 09:38:47;;;;;;;2.30;1.83;;;12.40;99.90;;;;;;5140894;27;20464;-36
2021/05/26 09:41:20;;;;;;;2.40;2.17;;;12.30;99.90;;;;;;5143180;27;20492;-37
2021/05/26 09:43:52;;;;;;;2.30;2.00;;;12.20;99.90;;;;;;5128507;27;20448;-37
2021/05/26 09:46:32;;;;;;;1.90;1.80;;;12.20;99.90;;;;;;5145045;27;20437;-35
2021/05/26 09:49:06;;;;;;;2.10;1.95;;;12.10;99.90;;;;;;5143808;27;20484;-37
2021/05/26 09:51:37;;;;;;;2.43;2.23;;;12.00;99.90;;;;;;5141921;27;20199;-36
2021/05/26 09:54:18;;;;;;;2.57;2.37;;;11.90;99.90;;;;;;5144347;27;20449;-33
2021/05/26 09:56:52;;;;;;;2.70;2.50;;;11.90;99.90;;;;;;5143678;27;20461;-38
2021/05/26 09:59:24;;;;;;;2.53;2.37;;;11.90;99.90;;;;;;5142978;27;20455;-35
2021/05/26 10:01:56;;;;;;;5.00;2.78;;;11.80;99.90;;;;;;5143637;27;20515;-37
2021/05/26 10:04:27;;;;;;;3.93;2.43;;;11.80;99.90;;;;;;5144323;27;20499;-37
2021/05/26 10:07:06;;;;;;;2.70;2.20;;;11.70;99.90;;;;;;5144477;27;20460;-35
2021/05/26 10:09:37;;;;;;;2.28;2.15;;;11.70;99.90;;;;;;5143238;27;20198;-36
2021/05/26 10:12:10;;;;;;;2.30;2.10;;;11.70;99.90;;;;;;5143648;27;20195;-35
2021/05/26 10:14:43;;;;;;;1.83;1.70;;;11.70;99.90;;;;;;5143028;27;20501;-36
2021/05/26 10:17:20;;;;;;;2.70;2.50;;;11.60;99.90;;;;;;5143460;27;20448;-36
2021/05/26 10:19:51;;;;;;;2.38;2.17;;;11.50;99.90;;;;;;5143419;27;20303;-37
2021/05/26 10:22:21;;;;;;;2.33;2.13;;;11.50;99.90;;;;;;5143971;27;20199;-35
2021/05/26 10:24:52;;;;;;;2.53;2.33;;;11.40;99.90;;;;;;5143864;27;20283;-36
2021/05/26 10:27:39;;;;;;;4.10;2.53;;;11.30;99.90;;;;;;5143884;27;20203;-37
2021/05/26 10:30:10;;;;;;;4.05;2.15;;;11.20;99.90;;;;;;5142710;27;20294;-35
2021/05/26 10:32:56;;;;;;;3.05;2.47;;;11.20;99.90;;;;;;5144417;27;20260;-37
2021/05/26 10:35:28;;;;;;;2.75;2.40;;;11.00;99.90;;;;;;5142229;27;20236;-35
2021/05/26 10:38:04;;;;;;;2.60;2.40;;;10.90;99.90;;;;;;5144162;27;20226;-34
2021/05/26 10:40:56;;;;;;;2.53;2.30;;;10.90;99.90;;;;;;5141349;27;20230;-36
2021/05/26 10:43:39;;;;;;;2.65;2.45;;;10.80;99.90;;;;;;5142995;27;20207;-37
2021/05/26 10:46:29;;;;;;;2.75;2.50;;;10.70;99.90;;;;;;5143514;28;20515;-36
2021/05/26 10:49:09;;;;;;;2.75;2.55;;;10.70;99.90;;;;;;5142731;28;20256;-35
2021/05/26 10:52:09;;;;;;;2.40;2.20;;;10.70;99.90;;;;;;5143459;28;20659;-36
2021/05/26 10:54:55;;;;;;;3.13;2.83;;;10.70;99.90;;;;;;5126052;28;20207;-35
2021/05/26 10:57:26;;;;;;;3.03;2.45;;;10.70;99.90;;;;;;5135132;28;20199;-38
2021/05/26 11:00:25;;;;;;;2.70;2.50;;;10.70;99.90;;;;;;5141521;28;20209;-37
2021/05/26 11:03:40;;;;;;;2.53;2.33;;;10.60;99.90;;;;;;5130127;28;20238;-37
2021/05/26 11:06:42;;;;;;;2.80;2.60;;;10.60;99.90;;;;;;5143617;28;20223;-37
2021/05/26 11:09:12;;;;;;;3.17;2.60;;;10.50;99.90;;;;;;5144449;27;20203;-35
2021/05/26 11:11:47;;;;;;;3.90;2.55;;;10.40;99.90;;;;;;5146856;27;20213;-36
2021/05/26 11:14:32;;;;;;;2.88;2.65;;;10.40;99.90;;;;;;5146296;27;20225;-33
2021/05/26 11:17:37;;;;;;;2.70;2.50;;;10.40;99.90;;;;;;5147302;27;20654;-38
2021/05/26 11:20:21;;;;;;;5.03;3.40;;;10.30;99.90;;;;;;5146323;27;20195;-34
2021/05/26 11:22:53;;;;;;;3.03;2.70;;;10.30;99.90;;;;;;5147476;27;20203;-33
2021/05/26 11:25:23;;;;;;;3.10;2.63;;;10.20;99.90;;;;;;5137583;27;20271;-37
2021/05/26 11:27:56;;;;;;;2.67;2.47;;;10.20;99.90;;;;;;5135635;27;20195;-37
2021/05/26 11:30:27;;;;;;;5.82;2.95;;;10.20;99.90;;;;;;5145665;27;20199;-37
2021/05/26 11:33:11;;;;;;;3.60;3.00;;;10.20;99.90;;;;;;5145282;27;20187;-37
2021/05/26 11:35:50;;;;;;;3.08;2.88;;;10.10;99.90;;;;;;5146183;27;20212;-32
2021/05/26 11:38:26;;;;;;;3.38;2.75;;;10.00;99.90;;;;;;5147273;27;20199;-35
2021/05/26 11:40:58;;;;;;;4.20;3.00;;;10.00;99.90;;;;;;5143004;27;20244;-37
2021/05/26 11:43:32;;;;;;;3.25;2.50;;;9.80;99.90;;;;;;5130886;27;20343;-36
2021/05/26 11:46:07;;;;;;;2.92;2.63;;;9.90;99.90;;;;;;5146219;27;20202;-35
2021/05/26 11:48:39;;;;;;;2.80;2.60;;;9.80;99.90;;;;;;5147101;27;20233;-35
2021/05/26 11:51:10;;;;;;;5.32;2.65;;;9.80;99.90;;;;;;5146597;27;20219;-31
2021/05/26 11:53:54;;;;;;;2.55;2.35;;;9.80;99.90;;;;;;5146129;27;20211;-34
2021/05/26 11:56:25;;;;;;;2.65;2.45;;;9.70;99.90;;;;;;5146916;27;20203;-36
2021/05/26 11:58:55;;;;;;;3.38;3.08;;;9.80;99.90;;;;;;5145888;27;20219;-37
2021/05/26 12:01:31;;;;;;;4.15;2.90;;;9.70;99.90;;;;;;5145475;27;20516;-36
2021/05/26 12:04:14;;;;;;;4.30;2.60;;;9.70;99.90;;;;;;5146359;27;20218;-35
2021/05/26 12:06:45;;;;;;;3.67;3.15;;;9.60;99.90;;;;;;5147020;27;20208;-33
2021/05/26 12:09:30;;;;;;;6.72;3.72;;;9.60;99.90;;;;;;5146446;27;20187;-35
2021/05/26 12:12:16;;;;;;;4.35;3.17;;;9.50;99.90;;;;;;5133444;27;20188;-35
2021/05/26 12:14:48;;;;;;;6.82;3.42;;;9.50;99.90;;;;;;5144630;27;20248;-33
2021/05/26 12:17:19;;;;;;;4.47;3.50;;;9.50;99.90;;;;;;5146307;27;20646;-36
2021/05/26 12:19:51;;;;;;;2.97;2.60;;;9.50;99.90;;;;;;5144562;27;20195;-32
2021/05/26 12:22:26;;;;;;;3.53;3.20;;;9.50;99.90;;;;;;5146108;27;20293;-38
2021/05/26 12:24:58;;;;;;;2.75;2.55;;;9.40;99.90;;;;;;5145934;27;20534;-35
2021/05/26 12:27:41;;;;;;;3.45;3.15;;;9.30;99.90;;;;;;5146999;27;20199;-37
2021/05/26 12:30:20;;;;;;;3.53;3.17;;;9.20;99.90;;;;;;5144773;27;20207;-32
2021/05/26 12:32:53;;;;;;;3.78;3.28;;;9.20;99.90;;;;;;5146070;27;20207;-37
2021/05/26 12:35:25;;;;;;;2.97;2.65;;;9.20;99.90;;;;;;5144667;27;20203;-36
2021/05/26 12:37:56;;;;;;;4.40;2.92;;;9.20;99.90;;;;;;5146325;27;20244;-35
2021/05/26 12:40:37;;;;;;;4.35;3.10;;;9.20;99.90;;;;;;5135161;27;20195;-36
2021/05/26 12:43:24;;;;;;;3.10;2.80;;;9.20;99.90;;;;;;5146228;27;20214;-36
2021/05/26 12:45:55;;;;;;;3.35;2.58;;;9.20;99.90;;;;;;5145258;27;20199;-37
2021/05/26 12:48:32;;;;;;;2.70;2.50;;;9.10;99.90;;;;;;5145907;27;20192;-33
2021/05/26 12:51:03;;;;;;;4.28;2.65;;;9.10;99.90;;;;;;5143769;27;20210;-34
2021/05/26 12:53:34;;;;;;;5.47;3.00;;;9.10;99.90;;;;;;5145034;27;20200;-38
2021/05/26 12:56:06;;;;;;;3.05;2.85;;;9.10;99.90;;;;;;5140648;27;20199;-35
2021/05/26 12:58:44;;;;;;;3.35;3.05;;;9.20;99.90;;;;;;5145154;27;20219;-35
2021/05/26 13:01:15;;;;;;;3.00;2.70;;;9.20;99.90;;;;;;5139096;27;20215;-35
2021/05/26 13:03:46;;;;;;;3.08;2.80;;;9.30;99.90;;;;;;5144656;27;20191;-35
2021/05/26 13:06:18;;;;;;;2.92;2.65;;;9.40;99.90;;;;;;5145058;27;20199;-35
2021/05/26 13:09:06;;;;;;;3.20;2.90;;;9.40;99.90;;;;;;5145157;27;20207;-35
2021/05/26 13:11:42;;;;;;;3.92;3.50;;;9.50;99.90;;;;;;5145217;27;20266;-36
2021/05/26 13:14:13;;;;;;;2.97;2.78;;;9.60;99.90;;;;;;5143200;27;20230;-37
2021/05/26 13:16:44;;;;;;;3.35;3.05;;;9.60;99.90;;;;;;5145077;27;20195;-37
2021/05/26 13:19:20;;;;;;;3.80;3.45;;;9.70;99.90;;;;;;5144378;27;20199;-33
2021/05/26 13:21:52;;;;;;;3.40;3.10;;;9.70;99.90;;;;;;5133298;27;20248;-37
2021/05/26 13:24:23;;;;;;;3.50;3.20;;;9.80;99.90;;;;;;5144165;27;20650;-37